Time;durP1;ratioP1;P1;durP2;ratioP2;P2;SDS_P1;SDS_P2;PMS_P1;PMS_P2;Temp;Humidity;BMP_temperature;BMP_pressure;BME280_temperature;BME280_humidity;BME280_pressure;Samples;Min_cycle;Max_cycle;Signal;HPM_P1;HPM_P2
2024/01/15 00:00:28;;;;;;;1.90;1.80;;;;;;;0.14;90.40;99359.13;5067254;28;20443;-75
2024/01/15 00:02:53;;;;;;;1.90;1.80;;;;;;;0.14;89.80;99354.78;5068988;28;20020;-75
2024/01/15 00:05:19;;;;;;;2.00;1.90;;;;;;;0.13;90.54;99360.03;5069379;28;20024;-75
2024/01/15 00:07:44;;;;;;;1.90;1.80;;;;;;;0.15;90.46;99361.75;5058037;28;20039;-75
2024/01/15 00:10:10;;;;;;;1.75;1.75;;;;;;;0.24;90.57;99368.72;5049364;28;20047;-75
2024/01/15 00:12:35;;;;;;;1.67;1.67;;;;;;;0.16;90.15;99354.78;5050048;28;20799;-75
2024/01/15 00:15:00;;;;;;;1.80;1.75;;;;;;;0.19;90.64;99358.25;5068865;28;20020;-75
2024/01/15 00:17:26;;;;;;;2.03;1.92;;;;;;;0.21;90.59;99358.25;5069031;28;20081;-74
2024/01/15 00:19:52;;;;;;;1.90;1.80;;;;;;;-0.03;90.51;99307.75;5070112;28;20500;-75
2024/01/15 00:22:17;;;;;;;1.80;1.80;;;;;;;0.29;90.89;99346.91;5059419;28;20056;-73
2024/01/15 00:24:43;;;;;;;1.90;1.80;;;;;;;0.31;90.19;99347.78;5032006;28;20029;-76
2024/01/15 00:27:08;;;;;;;2.10;2.00;;;;;;;0.34;90.34;99346.88;5055324;28;20053;-74
2024/01/15 00:29:34;;;;;;;1.70;1.70;;;;;;;0.39;90.65;99351.25;5069291;28;20027;-75
2024/01/15 00:31:59;;;;;;;1.70;1.70;;;;;;;0.40;89.89;99346.88;5065964;28;20020;-76
2024/01/15 00:34:25;;;;;;;1.70;1.70;;;;;;;0.36;90.54;99347.75;5050056;28;20463;-75
2024/01/15 00:36:50;;;;;;;1.70;1.70;;;;;;;0.36;91.34;99346.03;5030950;28;20037;-75
2024/01/15 00:39:16;;;;;;;1.90;1.80;;;;;;;0.38;90.27;99343.41;5060033;28;20070;-73
2024/01/15 00:41:42;;;;;;;1.65;1.65;;;;;;;0.40;91.73;99354.72;5030342;28;20028;-70
2024/01/15 00:44:07;;;;;;;1.60;1.60;;;;;;;0.41;91.19;99352.13;5056078;28;20493;-65
2024/01/15 00:46:33;;;;;;;1.70;1.70;;;;;;;0.43;91.26;99347.72;5049030;28;20028;-74
2024/01/15 00:48:58;;;;;;;1.70;1.70;;;;;;;0.38;92.00;99343.41;5068189;28;20035;-76
2024/01/15 00:51:24;;;;;;;1.73;1.73;;;;;;;0.22;91.31;99328.59;5068077;28;20578;-76
2024/01/15 00:53:49;;;;;;;1.90;1.80;;;;;;;0.34;92.26;99352.13;5063453;28;20466;-74
2024/01/15 00:56:14;;;;;;;2.00;1.90;;;;;;;0.17;91.74;99322.53;5049805;28;20103;-73
2024/01/15 00:58:40;;;;;;;1.90;1.80;;;;;;;0.37;92.25;99358.22;5065356;28;20033;-75
2024/01/15 01:01:05;;;;;;;1.70;1.70;;;;;;;0.37;92.38;99355.59;5051243;28;20029;-74
2024/01/15 01:03:31;;;;;;;1.60;1.60;;;;;;;0.41;92.29;99359.97;5049199;28;20434;-73
2024/01/15 01:05:56;;;;;;;1.60;1.60;;;;;;;0.37;92.53;99357.34;5055710;28;20033;-75
2024/01/15 01:08:21;;;;;;;1.90;1.80;;;;;;;0.39;92.54;99342.53;5048238;28;20108;-75
2024/01/15 01:10:47;;;;;;;1.70;1.70;;;;;;;0.42;92.59;99339.88;5050142;28;20044;-74
2024/01/15 01:13:12;;;;;;;1.70;1.70;;;;;;;0.42;92.54;99342.50;5049435;28;20056;-75
2024/01/15 01:15:38;;;;;;;1.75;1.75;;;;;;;0.41;92.03;99332.94;5049965;28;20063;-74
2024/01/15 01:18:04;;;;;;;1.70;1.70;;;;;;;0.37;92.54;99326.84;5062369;28;20096;-75
2024/01/15 01:20:30;;;;;;;1.83;1.80;;;;;;;0.36;92.25;99321.63;5050941;28;20446;-75
2024/01/15 01:22:55;;;;;;;2.00;1.90;;;;;;;0.30;92.82;99313.81;5063970;28;20497;-77
2024/01/15 01:25:21;;;;;;;1.70;1.70;;;;;;;0.33;93.72;99308.56;5048998;28;20037;-76
2024/01/15 01:27:46;;;;;;;1.73;1.73;;;;;;;0.42;92.94;99316.34;5049281;28;20032;-76
2024/01/15 01:30:11;;;;;;;1.90;1.80;;;;;;;0.21;92.62;99285.94;5056173;28;20025;-75
2024/01/15 01:32:37;;;;;;;1.90;1.80;;;;;;;0.45;93.16;99325.06;5043414;28;20028;-76
2024/01/15 01:35:03;;;;;;;1.70;1.70;;;;;;;0.42;92.23;99325.06;5068415;28;20025;-76
2024/01/15 01:37:28;;;;;;;1.70;1.70;;;;;;;0.46;92.57;99325.94;5057004;28;20078;-76
2024/01/15 01:39:53;;;;;;;1.63;1.63;;;;;;;0.47;92.98;99322.44;5050379;28;20028;-75
2024/01/15 01:42:19;;;;;;;1.70;1.70;;;;;;;0.43;93.37;99326.81;5046975;28;20104;-75
2024/01/15 01:44:44;;;;;;;1.60;1.60;;;;;;;0.24;93.27;99283.28;5048429;28;20044;-75
2024/01/15 01:47:10;;;;;;;1.70;1.70;;;;;;;0.42;93.24;99324.19;5065357;28;20514;-75
2024/01/15 01:49:37;;;;;;;1.70;1.70;;;;;;;0.42;93.27;99326.81;5063202;28;20086;-75
2024/01/15 01:52:05;;;;;;;1.70;1.70;;;;;;;0.36;93.05;99301.56;5065417;28;20812;-75
2024/01/15 01:54:32;;;;;;;2.10;2.00;;;;;;;0.47;92.94;99318.09;5049274;28;20479;-64
2024/01/15 01:56:58;;;;;;;1.80;1.75;;;;;;;0.43;93.06;99305.03;5048209;28;20036;-64
2024/01/15 01:59:26;;;;;;;1.90;1.80;;;;;;;0.41;93.52;99310.28;5061534;28;20402;-65
2024/01/15 02:01:54;;;;;;;1.90;1.80;;;;;;;0.42;94.13;99301.53;5068796;28;20029;-74
2024/01/15 02:04:19;;;;;;;1.90;1.80;;;;;;;0.34;93.94;99299.81;5068210;28;20410;-74
2024/01/15 02:06:45;;;;;;;1.70;1.70;;;;;;;0.28;94.17;99305.06;5049098;28;20024;-76
2024/01/15 02:09:14;;;;;;;1.73;1.73;;;;;;;0.22;94.69;99294.63;5053105;28;20037;-76
2024/01/15 02:11:40;;;;;;;1.90;1.80;;;;;;;0.19;94.33;99297.25;5068640;28;20099;-76
2024/01/15 02:14:06;;;;;;;2.00;1.90;;;;;;;0.18;94.79;99290.28;5067622;28;20017;-75
2024/01/15 02:16:31;;;;;;;2.10;2.00;;;;;;;0.20;95.37;99280.69;5049975;28;20028;-76
2024/01/15 02:18:57;;;;;;;2.00;1.90;;;;;;;0.17;95.27;99286.78;5067646;28;20032;-74
2024/01/15 02:21:22;;;;;;;1.70;1.70;;;;;;;-0.04;94.66;99250.28;5060172;28;20039;-76
2024/01/15 02:23:47;;;;;;;1.90;1.80;;;;;;;0.22;95.25;99294.63;5030072;28;20033;-76
2024/01/15 02:26:14;;;;;;;2.08;1.98;;;;;;;-0.06;95.10;99236.31;5047866;28;20025;-75
2024/01/15 02:28:41;;;;;;;2.15;2.05;;;;;;;0.25;94.75;99290.25;5057810;28;20016;-76
2024/01/15 02:31:06;;;;;;;2.00;1.90;;;;;;;0.10;95.33;99263.31;5059133;28;20024;-78
2024/01/15 02:33:32;;;;;;;1.85;1.80;;;;;;;0.28;94.82;99284.16;5049214;28;20039;-74
2024/01/15 02:35:57;;;;;;;2.10;2.00;;;;;;;0.26;95.23;99283.28;5058906;28;20040;-73
2024/01/15 02:38:23;;;;;;;2.00;1.90;;;;;;;0.19;95.16;99273.72;5049526;28;20031;-75
2024/01/15 02:40:49;;;;;;;1.70;1.70;;;;;;;0.27;95.51;99292.84;5048281;28;20033;-76
2024/01/15 02:43:15;;;;;;;1.90;1.80;;;;;;;0.32;95.55;99291.09;5045970;28;20045;-71
2024/01/15 02:45:40;;;;;;;1.80;1.80;;;;;;;0.32;95.38;99285.88;5048954;28;20082;-74
2024/01/15 02:48:06;;;;;;;1.90;1.80;;;;;;;0.37;96.08;99294.56;5046767;28;20096;-78
2024/01/15 02:50:31;;;;;;;1.70;1.70;;;;;;;0.34;95.70;99294.59;5058673;28;20520;-77
2024/01/15 02:52:57;;;;;;;1.95;1.85;;;;;;;0.40;95.22;99294.56;5033047;28;20040;-76
2024/01/15 02:55:22;;;;;;;1.90;1.80;;;;;;;0.43;95.33;99290.19;5064528;28;20027;-77
2024/01/15 02:57:48;;;;;;;1.90;1.80;;;;;;;0.44;95.17;99291.94;5066871;28;20025;-73
2024/01/15 03:00:14;;;;;;;1.90;1.80;;;;;;;0.46;95.80;99278.84;5061990;28;20717;-77
2024/01/15 03:02:40;;;;;;;1.75;1.75;;;;;;;0.46;95.87;99276.25;5067687;28;20032;-74
2024/01/15 03:05:07;;;;;;;1.90;1.80;;;;;;;0.45;95.62;99277.09;5065067;28;20033;-76
2024/01/15 03:07:33;;;;;;;1.90;1.80;;;;;;;0.48;95.44;99271.88;5066924;28;20505;-76
2024/01/15 03:09:59;;;;;;;1.60;1.60;;;;;;;0.42;95.78;99267.53;5059733;28;20049;-75
2024/01/15 03:12:24;;;;;;;1.90;1.80;;;;;;;0.43;95.06;99276.25;5047631;28;20526;-74
2024/01/15 03:14:50;;;;;;;1.90;1.80;;;;;;;0.40;95.18;99279.75;5049285;28;20032;-73
2024/01/15 03:17:15;;;;;;;2.00;1.90;;;;;;;0.32;95.64;99268.44;5029410;28;20033;-69
2024/01/15 03:19:41;;;;;;;1.60;1.60;;;;;;;0.34;95.39;99276.28;5047403;28;20491;-74
2024/01/15 03:22:08;;;;;;;1.70;1.70;;;;;;;0.40;95.54;99273.63;5048491;28;20135;-75
2024/01/15 03:24:34;;;;;;;1.63;1.63;;;;;;;0.36;96.95;99269.31;5065512;28;20020;-76
2024/01/15 03:27:00;;;;;;;1.80;1.80;;;;;;;0.11;96.37;99226.69;5046944;28;20475;-75
2024/01/15 03:29:26;;;;;;;1.70;1.70;;;;;;;0.43;96.43;99265.78;5045824;28;20017;-74
2024/01/15 03:31:51;;;;;;;1.70;1.70;;;;;;;0.44;96.48;99254.44;5068277;28;20093;-74
2024/01/15 03:34:17;;;;;;;1.80;1.80;;;;;;;0.45;96.68;99253.56;5067376;28;20119;-72
2024/01/15 03:36:42;;;;;;;1.73;1.70;;;;;;;0.49;96.36;99252.69;5051587;28;20041;-73
2024/01/15 03:39:07;;;;;;;1.65;1.65;;;;;;;0.49;96.57;99248.31;5054943;28;20032;-72
2024/01/15 03:41:33;;;;;;;1.85;1.77;;;;;;;0.54;96.62;99245.69;5065460;28;20039;-72
2024/01/15 03:43:59;;;;;;;1.70;1.70;;;;;;;0.57;96.60;99240.44;5069970;28;20041;-73
2024/01/15 03:46:24;;;;;;;1.77;1.77;;;;;;;0.54;95.89;99250.91;5070473;28;20466;-74
2024/01/15 03:48:50;;;;;;;1.80;1.80;;;;;;;0.55;96.03;99252.63;5064436;28;20024;-75
2024/01/15 03:51:17;;;;;;;1.80;1.80;;;;;;;0.56;96.97;99251.78;5070631;28;20024;-74
2024/01/15 03:53:43;;;;;;;2.00;1.90;;;;;;;0.58;96.30;99236.91;5068600;28;20358;-75
2024/01/15 03:56:08;;;;;;;1.90;1.80;;;;;;;0.55;96.32;99232.59;5067791;28;20059;-75
2024/01/15 03:58:34;;;;;;;1.77;1.77;;;;;;;0.54;97.09;99230.88;5052562;28;20021;-75
2024/01/15 04:00:59;;;;;;;1.70;1.70;;;;;;;0.55;96.96;99223.84;5050554;28;20525;-73
2024/01/15 04:03:24;;;;;;;1.60;1.60;;;;;;;0.60;97.06;99224.69;5052813;28;20052;-75
2024/01/15 04:05:50;;;;;;;1.70;1.70;;;;;;;0.36;96.68;99193.47;5050752;28;20124;-73
2024/01/15 04:08:15;;;;;;;1.80;1.80;;;;;;;0.63;97.34;99224.69;5046155;28;20474;-74
2024/01/15 04:10:41;;;;;;;1.60;1.60;;;;;;;0.65;96.06;99220.31;5068490;28;20116;-74
2024/01/15 04:13:07;;;;;;;1.60;1.60;;;;;;;0.61;96.65;99210.75;5071096;28;20367;-74
2024/01/15 04:15:32;;;;;;;1.67;1.67;;;;;;;0.66;95.93;99215.06;5070966;28;20060;-75
2024/01/15 04:17:57;;;;;;;1.70;1.70;;;;;;;0.37;95.97;99175.16;5065490;28;20111;-74
2024/01/15 04:20:23;;;;;;;1.70;1.70;;;;;;;0.72;95.82;99224.63;5069403;28;20021;-72
2024/01/15 04:22:48;;;;;;;1.75;1.75;;;;;;;0.70;96.28;99226.38;5045970;28;20107;-74
2024/01/15 04:25:14;;;;;;;1.60;1.60;;;;;;;0.50;96.21;99183.78;5063186;28;20029;-72
2024/01/15 04:27:39;;;;;;;1.73;1.73;;;;;;;0.75;96.19;99214.16;5068250;28;20024;-76
2024/01/15 04:30:05;;;;;;;1.67;1.67;;;;;;;0.51;95.52;99185.53;5053039;28;20540;-73
2024/01/15 04:32:30;;;;;;;1.90;1.80;;;;;;;0.71;95.98;99217.69;5057626;28;20031;-74
2024/01/15 04:34:56;;;;;;;1.70;1.70;;;;;;;0.72;95.58;99211.56;5029934;28;20104;-74
2024/01/15 04:37:21;;;;;;;1.60;1.60;;;;;;;0.75;96.06;99211.53;5068536;28;20039;-75
2024/01/15 04:39:46;;;;;;;1.73;1.73;;;;;;;0.74;96.23;99212.44;5051086;28;20063;-69
2024/01/15 04:42:12;;;;;;;1.70;1.70;;;;;;;0.77;95.70;99208.03;5047543;28;20036;-74
2024/01/15 04:44:37;;;;;;;1.58;1.58;;;;;;;0.52;95.76;99168.94;5069604;28;20551;-73
2024/01/15 04:47:03;;;;;;;1.60;1.60;;;;;;;0.54;96.14;99165.47;5063459;28;20029;-74
2024/01/15 04:49:29;;;;;;;1.70;1.70;;;;;;;0.78;95.85;99214.13;5031328;28;20028;-77
2024/01/15 04:51:54;;;;;;;1.70;1.70;;;;;;;0.80;96.08;99204.53;5049647;28;20048;-76
2024/01/15 04:54:20;;;;;;;1.65;1.65;;;;;;;0.83;96.02;99202.75;5064064;28;20028;-75
2024/01/15 04:56:45;;;;;;;1.70;1.70;;;;;;;0.80;95.87;99194.94;5050275;28;20402;-75
2024/01/15 04:59:11;;;;;;;1.70;1.70;;;;;;;0.78;95.70;99198.41;5049721;28;20033;-76
2024/01/15 05:01:36;;;;;;;1.60;1.60;;;;;;;0.80;96.28;99191.44;5052743;28;20344;-76
2024/01/15 05:04:02;;;;;;;1.70;1.70;;;;;;;0.78;95.42;99193.19;5068405;28;20539;-75
2024/01/15 05:06:28;;;;;;;2.00;1.90;;;;;;;0.51;96.10;99147.13;5069045;28;20104;-75
2024/01/15 05:08:53;;;;;;;1.70;1.70;;;;;;;0.75;96.54;99185.34;5068926;28;20379;-74
2024/01/15 05:11:19;;;;;;;1.67;1.67;;;;;;;0.73;96.21;99174.91;5065892;28;20029;-75
2024/01/15 05:13:44;;;;;;;1.70;1.70;;;;;;;0.37;97.03;99127.19;5051697;28;20501;-74
2024/01/15 05:16:09;;;;;;;1.70;1.70;;;;;;;0.74;96.96;99175.78;5068476;28;20036;-76
2024/01/15 05:18:37;;;;;;;1.70;1.70;;;;;;;0.72;96.75;99173.19;5064515;28;20020;-74
2024/01/15 05:21:03;;;;;;;1.60;1.60;;;;;;;0.75;96.33;99169.66;5049481;28;20032;-74
2024/01/15 05:23:28;;;;;;;1.90;1.80;;;;;;;0.75;97.13;99172.28;5049552;28;20115;-74
2024/01/15 05:25:53;;;;;;;1.70;1.70;;;;;;;0.50;96.64;99131.47;5047464;28;20427;-76
2024/01/15 05:28:19;;;;;;;1.60;1.60;;;;;;;0.73;96.68;99163.56;5047807;28;20033;-74
2024/01/15 05:30:44;;;;;;;1.90;1.80;;;;;;;0.79;96.31;99155.69;5049765;28;20036;-74
2024/01/15 05:33:10;;;;;;;1.67;1.67;;;;;;;0.52;97.30;99103.53;5047302;28;20463;-74
2024/01/15 05:35:36;;;;;;;1.73;1.73;;;;;;;0.75;96.96;99151.34;5050255;28;20083;-76
2024/01/15 05:38:02;;;;;;;1.90;1.80;;;;;;;0.30;96.63;99081.06;5056235;28;20032;-75
2024/01/15 05:40:28;;;;;;;1.60;1.60;;;;;;;0.77;97.80;99139.13;5050689;28;20148;-74
2024/01/15 05:42:53;;;;;;;1.70;1.70;;;;;;;0.56;97.23;99108.75;5064673;28;20100;-75
2024/01/15 05:45:19;;;;;;;1.88;1.80;;;;;;;0.81;97.24;99151.28;5066417;28;20428;-76
2024/01/15 05:47:44;;;;;;;1.70;1.70;;;;;;;0.78;97.06;99146.06;5045991;28;20527;-75
2024/01/15 05:50:10;;;;;;;1.70;1.70;;;;;;;0.79;96.19;99147.84;5068257;28;20024;-74
2024/01/15 05:52:35;;;;;;;1.60;1.60;;;;;;;0.79;97.45;99143.44;5068247;28;20104;-75
2024/01/15 05:55:01;;;;;;;1.90;1.80;;;;;;;0.82;96.34;99142.56;5060708;28;20033;-75
2024/01/15 05:57:26;;;;;;;1.60;1.60;;;;;;;0.83;96.37;99133.81;5062442;28;20127;-76
2024/01/15 05:59:52;;;;;;;1.70;1.70;;;;;;;0.84;96.38;99139.03;5066663;28;20548;-76
2024/01/15 06:02:17;;;;;;;1.65;1.65;;;;;;;0.74;96.45;99118.22;5050590;28;20033;-76
2024/01/15 06:04:43;;;;;;;1.70;1.70;;;;;;;0.84;96.45;99138.19;5048363;28;20696;-76
2024/01/15 06:07:08;;;;;;;1.70;1.70;;;;;;;0.81;95.91;99123.38;5066963;28;20036;-73
2024/01/15 06:09:33;;;;;;;1.60;1.60;;;;;;;0.83;96.23;99121.63;5056919;28;20031;-75
2024/01/15 06:11:59;;;;;;;1.50;1.50;;;;;;;0.85;96.07;99121.59;5065164;28;20062;-73
2024/01/15 06:14:24;;;;;;;1.70;1.70;;;;;;;0.86;95.97;99107.63;5065710;28;20902;-76
2024/01/15 06:16:50;;;;;;;1.70;1.70;;;;;;;0.62;96.37;99082.56;5063140;28;20028;-74
2024/01/15 06:19:15;;;;;;;1.60;1.60;;;;;;;0.86;96.34;99107.63;5066510;28;20135;-75
2024/01/15 06:21:40;;;;;;;1.70;1.70;;;;;;;0.86;95.64;99105.00;5060790;28;20502;-74
2024/01/15 06:24:06;;;;;;;1.70;1.70;;;;;;;0.91;95.43;99114.56;5066564;28;20063;-75
2024/01/15 06:26:31;;;;;;;1.70;1.70;;;;;;;0.94;95.72;99126.78;5049193;28;20116;-74
2024/01/15 06:28:57;;;;;;;1.50;1.50;;;;;;;0.94;95.84;99138.09;5065849;28;20541;-75
2024/01/15 06:31:22;;;;;;;1.60;1.60;;;;;;;0.95;95.07;99128.50;5036991;28;20139;-75
2024/01/15 06:33:48;;;;;;;1.70;1.70;;;;;;;0.96;96.23;99125.88;5058703;28;20043;-74
2024/01/15 06:36:16;;;;;;;1.60;1.60;;;;;;;0.74;95.12;99079.81;5048562;28;20085;-65
2024/01/15 06:38:42;;;;;;;1.70;1.70;;;;;;;1.02;95.12;99119.72;5064321;28;20024;-64
2024/01/15 06:41:08;;;;;;;1.70;1.70;;;;;;;1.02;95.59;99111.88;5066783;28;20748;-65
2024/01/15 06:43:34;;;;;;;1.70;1.70;;;;;;;0.85;95.41;99079.72;5066725;28;20045;-65
2024/01/15 06:45:59;;;;;;;1.70;1.70;;;;;;;1.04;94.62;99107.44;5061947;28;20028;-65
2024/01/15 06:48:25;;;;;;;1.70;1.70;;;;;;;1.00;94.33;99092.69;5067269;28;20028;-65
2024/01/15 06:50:50;;;;;;;1.60;1.60;;;;;;;0.92;94.76;99074.41;5063604;28;20523;-65
2024/01/15 06:53:15;;;;;;;1.60;1.60;;;;;;;1.02;94.47;99093.53;5068202;28;20044;-65
2024/01/15 06:55:41;;;;;;;1.58;1.58;;;;;;;1.11;94.69;99099.53;5067471;28;20074;-65
2024/01/15 06:58:06;;;;;;;1.60;1.60;;;;;;;1.10;93.96;99102.19;5064252;28;20482;-65
2024/01/15 07:00:32;;;;;;;1.60;1.60;;;;;;;1.12;93.82;99097.81;5067952;28;20410;-65
2024/01/15 07:02:57;;;;;;;1.70;1.70;;;;;;;1.16;94.53;99096.88;5062540;28;20044;-65
2024/01/15 07:05:24;;;;;;;1.70;1.70;;;;;;;0.95;93.98;99068.28;5048676;28;20061;-64
2024/01/15 07:07:49;;;;;;;1.70;1.70;;;;;;;1.17;93.64;99093.41;5050931;28;20021;-64
2024/01/15 07:10:15;;;;;;;1.50;1.50;;;;;;;1.20;94.48;99101.22;5036241;28;20132;-64
2024/01/15 07:12:43;;;;;;;1.50;1.50;;;;;;;1.19;93.55;99108.19;5051101;28;20052;-65
2024/01/15 07:15:09;;;;;;;1.50;1.50;;;;;;;1.21;93.47;99108.16;5049500;28;20534;-64
2024/01/15 07:17:35;;;;;;;1.70;1.70;;;;;;;1.21;93.35;99121.25;5058693;28;20032;-64
2024/01/15 07:20:01;;;;;;;1.70;1.70;;;;;;;1.22;93.47;99123.88;5047411;28;20016;-65
2024/01/15 07:22:27;;;;;;;1.58;1.58;;;;;;;0.98;93.72;99090.06;5049364;28;20685;-64
2024/01/15 07:24:52;;;;;;;1.50;1.50;;;;;;;1.23;93.57;99129.97;5050717;28;20024;-64
2024/01/15 07:27:18;;;;;;;1.50;1.50;;;;;;;1.24;93.35;99136.94;5062549;28;20100;-65
2024/01/15 07:29:43;;;;;;;1.70;1.70;;;;;;;1.22;93.37;99134.34;5056525;28;20025;-65
2024/01/15 07:32:10;;;;;;;1.67;1.67;;;;;;;1.23;94.46;99143.06;5051338;28;20808;-65
2024/01/15 07:34:35;;;;;;;1.60;1.60;;;;;;;1.06;94.09;99121.41;5050494;28;20025;-64
2024/01/15 07:37:01;;;;;;;1.50;1.50;;;;;;;1.29;94.38;99150.88;5067553;28;20055;-65
2024/01/15 07:39:28;;;;;;;1.60;1.60;;;;;;;1.33;93.93;99152.59;5070845;28;20021;-65
2024/01/15 07:41:54;;;;;;;1.50;1.50;;;;;;;1.29;94.41;99156.09;5069229;28;20424;-64
2024/01/15 07:44:19;;;;;;;1.50;1.50;;;;;;;1.25;94.69;99155.25;5070700;28;20049;-70
2024/01/15 07:46:45;;;;;;;1.50;1.50;;;;;;;1.25;94.55;99154.41;5059702;28;20021;-75
2024/01/15 07:49:11;;;;;;;1.50;1.50;;;;;;;1.29;94.02;99153.50;5049728;28;20108;-74
2024/01/15 07:51:37;;;;;;;1.70;1.70;;;;;;;1.31;94.69;99154.34;5048567;28;20168;-72
2024/01/15 07:54:02;;;;;;;1.50;1.50;;;;;;;1.37;94.81;99148.19;5046431;28;20470;-74
2024/01/15 07:56:27;;;;;;;1.60;1.60;;;;;;;1.37;93.77;99158.66;5035615;28;20427;-75
2024/01/15 07:58:53;;;;;;;1.60;1.60;;;;;;;1.22;94.67;99130.84;5048618;28;20052;-71
2024/01/15 08:01:18;;;;;;;1.50;1.50;;;;;;;1.40;94.41;99149.00;5050260;28;20024;-70
2024/01/15 08:03:44;;;;;;;1.42;1.42;;;;;;;1.40;94.40;99143.75;5045976;28;20036;-74
2024/01/15 08:06:10;;;;;;;1.60;1.60;;;;;;;1.43;94.23;99148.13;5032433;28;20617;-76
2024/01/15 08:08:35;;;;;;;1.50;1.50;;;;;;;1.43;94.45;99137.63;5039071;28;20025;-75
2024/01/15 08:11:01;;;;;;;1.50;1.50;;;;;;;1.28;94.78;99125.56;5028683;28;20708;-75
2024/01/15 08:13:26;;;;;;;1.50;1.50;;;;;;;1.45;94.81;99136.72;5058293;28;20025;-76
2024/01/15 08:15:52;;;;;;;1.50;1.50;;;;;;;1.46;95.10;99129.75;5068263;28;20908;-75
2024/01/15 08:18:17;;;;;;;1.60;1.60;;;;;;;1.22;94.31;99081.97;5048833;28;20033;-74
2024/01/15 08:20:43;;;;;;;1.50;1.50;;;;;;;1.48;94.45;99134.09;5053531;28;20035;-74
2024/01/15 08:23:09;;;;;;;1.55;1.55;;;;;;;1.51;94.97;99143.66;5056765;28;20033;-73
2024/01/15 08:25:35;;;;;;;1.50;1.50;;;;;;;1.55;95.48;99135.75;5032126;28;20079;-75
2024/01/15 08:28:00;;;;;;;1.50;1.50;;;;;;;1.20;94.65;99072.41;5029957;28;20443;-76
2024/01/15 08:30:27;;;;;;;1.48;1.48;;;;;;;1.64;94.89;99127.78;5047024;28;20024;-75
2024/01/15 08:32:56;;;;;;;1.40;1.40;;;;;;;1.62;95.21;99124.31;5028088;28;20037;-75
2024/01/15 08:35:22;;;;;;;1.40;1.40;;;;;;;1.66;94.84;99133.91;5050233;28;20071;-76
2024/01/15 08:37:52;;;;;;;1.50;1.50;;;;;;;1.69;94.62;99131.22;5046745;28;20021;-75
2024/01/15 08:40:17;;;;;;;1.50;1.50;;;;;;;1.47;94.35;99085.19;5012096;28;20083;-74
2024/01/15 08:42:43;;;;;;;1.50;1.50;;;;;;;1.73;95.36;99129.44;5029671;28;20029;-72
2024/01/15 08:45:09;;;;;;;1.50;1.50;;;;;;;1.31;94.31;99044.34;5051751;28;20029;-74
2024/01/15 08:47:35;;;;;;;1.60;1.60;;;;;;;1.74;94.94;99105.84;5049507;28;20021;-74
2024/01/15 08:50:01;;;;;;;1.85;1.80;;;;;;;1.80;94.31;99097.88;5032082;28;20036;-74
2024/01/15 08:52:27;;;;;;;1.50;1.50;;;;;;;1.86;95.03;99107.44;5050227;28;20029;-75
2024/01/15 08:54:52;;;;;;;1.58;1.58;;;;;;;1.79;94.51;99075.19;5052106;28;20434;-75
2024/01/15 08:57:18;;;;;;;1.42;1.42;;;;;;;2.06;94.38;99101.03;5049222;28;20599;-75
2024/01/15 08:59:45;;;;;;;1.50;1.50;;;;;;;1.84;94.24;99068.13;5049009;28;20047;-73
2024/01/15 09:02:10;;;;;;;1.40;1.40;;;;;;;2.09;94.83;99101.00;5062279;28;20055;-75
2024/01/15 09:04:35;;;;;;;1.50;1.50;;;;;;;2.10;93.79;99099.25;5064695;28;20463;-75
2024/01/15 09:07:01;;;;;;;1.40;1.40;;;;;;;1.71;94.39;99016.78;5031155;28;20384;-75
2024/01/15 09:09:27;;;;;;;1.50;1.50;;;;;;;2.22;94.25;99086.84;5047780;28;20033;-76
2024/01/15 09:11:52;;;;;;;1.33;1.33;;;;;;;2.15;94.36;99081.69;5047694;28;20090;-73
2024/01/15 09:14:18;;;;;;;1.50;1.50;;;;;;;2.18;94.47;99082.50;5049772;28;20029;-74
2024/01/15 09:16:43;;;;;;;1.50;1.50;;;;;;;2.20;94.38;99083.38;5047577;28;20029;-74
2024/01/15 09:19:09;;;;;;;1.40;1.40;;;;;;;2.22;94.74;99065.84;5047929;28;20078;-73
2024/01/15 09:21:34;;;;;;;1.42;1.42;;;;;;;2.29;94.29;99066.63;5065197;28;20029;-75
2024/01/15 09:24:00;;;;;;;1.50;1.50;;;;;;;2.35;93.78;99067.41;5033557;28;20469;-74
2024/01/15 09:26:26;;;;;;;1.38;1.38;;;;;;;2.37;93.42;99068.22;5049518;28;20043;-76
2024/01/15 09:28:52;;;;;;;1.40;1.40;;;;;;;2.40;92.79;99062.09;5032630;28;20049;-77
2024/01/15 09:31:19;;;;;;;1.48;1.48;;;;;;;2.41;93.13;99075.19;5035776;28;20032;-76
2024/01/15 09:33:45;;;;;;;1.48;1.48;;;;;;;2.50;92.33;99066.31;5068958;28;20024;-74
2024/01/15 09:36:10;;;;;;;1.70;1.70;;;;;;;2.32;92.03;99040.34;5066120;28;20384;-74
2024/01/15 09:38:36;;;;;;;1.55;1.55;;;;;;;2.51;91.99;99074.16;5054582;28;20466;-74
2024/01/15 09:41:02;;;;;;;1.50;1.50;;;;;;;2.47;92.17;99072.44;5069030;28;20119;-74
2024/01/15 09:43:27;;;;;;;1.40;1.40;;;;;;;2.37;92.22;99049.00;5063050;28;20049;-76
2024/01/15 09:45:53;;;;;;;1.50;1.50;;;;;;;2.38;92.40;99056.88;5033465;28;20394;-76
2024/01/15 09:48:19;;;;;;;1.52;1.52;;;;;;;2.50;92.67;99079.41;5051043;28;20032;-76
2024/01/15 09:50:45;;;;;;;1.52;1.52;;;;;;;2.29;92.93;99041.25;5047305;28;20078;-74
2024/01/15 09:53:13;;;;;;;1.35;1.35;;;;;;;2.49;92.37;99081.16;5048732;28;20102;-76
2024/01/15 09:55:38;;;;;;;1.40;1.40;;;;;;;2.51;92.77;99074.16;5039416;28;20388;-74
2024/01/15 09:58:04;;;;;;;1.50;1.50;;;;;;;2.55;92.83;99067.09;5029004;28;20021;-74
2024/01/15 10:00:31;;;;;;;1.40;1.40;;;;;;;2.49;93.73;99075.91;5029014;28;20037;-75
2024/01/15 10:02:56;;;;;;;1.40;1.40;;;;;;;2.42;94.26;99066.41;5038410;28;20033;-76
2024/01/15 10:05:22;;;;;;;1.38;1.38;;;;;;;2.40;94.58;99062.97;5030634;28;20434;-72
2024/01/15 10:07:51;;;;;;;1.27;1.27;;;;;;;2.41;95.69;99054.19;5047085;28;20031;-76
2024/01/15 10:10:16;;;;;;;1.38;1.38;;;;;;;2.40;95.68;99044.59;5046519;28;20035;-75
2024/01/15 10:12:42;;;;;;;1.40;1.40;;;;;;;2.37;95.88;99044.59;5046416;28;20025;-76
2024/01/15 10:15:11;;;;;;;1.38;1.38;;;;;;;2.15;96.44;98998.63;5044314;28;20075;-76
2024/01/15 10:17:38;;;;;;;1.55;1.55;;;;;;;2.45;96.04;99042.75;5062496;28;20032;-75
2024/01/15 10:20:09;;;;;;;1.30;1.30;;;;;;;2.52;95.72;99033.88;5054357;28;20034;-77
2024/01/15 10:22:37;;;;;;;1.27;1.27;;;;;;;2.45;96.07;99013.91;5028325;28;20154;-76
2024/01/15 10:25:04;;;;;;;1.45;1.45;;;;;;;2.62;95.56;99021.47;5038723;28;20037;-75
2024/01/15 10:27:29;;;;;;;1.50;1.50;;;;;;;2.64;94.85;99023.19;5048531;28;20054;-73
2024/01/15 10:30:00;;;;;;;1.30;1.30;;;;;;;2.67;94.44;99012.63;5047860;28;20483;-71
2024/01/15 10:32:25;;;;;;;1.38;1.38;;;;;;;2.68;93.56;99014.34;5030174;28;20483;-75
2024/01/15 10:34:52;;;;;;;1.33;1.33;;;;;;;2.72;94.15;99023.91;5027845;28;20032;-76
2024/01/15 10:37:18;;;;;;;1.40;1.40;;;;;;;2.79;94.07;99015.91;5027722;28;20036;-75
2024/01/15 10:39:44;;;;;;;1.30;1.30;;;;;;;2.81;93.70;99008.88;5028740;28;20045;-74
2024/01/15 10:42:09;;;;;;;1.30;1.30;;;;;;;2.82;93.26;99008.00;5026887;28;20029;-75
2024/01/15 10:44:35;;;;;;;1.40;1.40;;;;;;;2.88;93.22;99014.03;5043186;28;20064;-73
2024/01/15 10:47:01;;;;;;;1.30;1.30;;;;;;;2.89;92.14;99013.13;5046618;28;20120;-75
2024/01/15 10:49:28;;;;;;;1.40;1.40;;;;;;;2.90;92.24;99014.00;5047064;28;20120;-74
2024/01/15 10:51:54;;;;;;;1.40;1.40;;;;;;;2.84;92.80;99012.34;5063841;28;20020;-73
2024/01/15 10:54:20;;;;;;;1.40;1.40;;;;;;;2.84;94.00;99014.09;5067052;28;20032;-72
2024/01/15 10:56:47;;;;;;;1.38;1.38;;;;;;;2.82;95.25;99013.28;5028540;28;20515;-74
2024/01/15 10:59:13;;;;;;;1.40;1.40;;;;;;;2.83;95.25;99022.88;5047939;28;20086;-73
2024/01/15 11:01:39;;;;;;;1.40;1.40;;;;;;;2.87;95.88;99019.31;5045565;28;20055;-75
2024/01/15 11:04:05;;;;;;;1.30;1.30;;;;;;;2.88;96.49;99026.28;5046123;28;20462;-73
2024/01/15 11:06:43;;;;;;;1.38;1.38;;;;;;;2.64;96.58;99007.44;5045912;28;20496;-75
2024/01/15 11:09:08;;;;;;;1.33;1.33;;;;;;;2.82;97.12;99032.50;5049204;28;20029;-73
2024/01/15 11:11:40;;;;;;;1.30;1.30;;;;;;;2.81;98.15;99020.28;5047405;28;20662;-74
2024/01/15 11:14:06;;;;;;;1.40;1.40;;;;;;;2.82;98.78;99010.66;5057014;28;20025;-74
2024/01/15 11:16:56;;;;;;;1.40;1.40;;;;;;;2.81;99.14;99011.50;5067634;28;20028;-75
2024/01/15 11:19:21;;;;;;;1.40;1.40;;;;;;;2.85;99.85;99013.22;5051993;28;20032;-74
2024/01/15 11:21:47;;;;;;;1.40;1.40;;;;;;;2.68;100.00;98977.59;5065521;28;20483;-74
2024/01/15 11:24:36;;;;;;;1.30;1.30;;;;;;;2.91;100.00;99015.72;5066043;28;20043;-73
2024/01/15 11:27:02;;;;;;;1.30;1.30;;;;;;;2.93;100.00;99006.06;5047743;28;20033;-73
2024/01/15 11:29:27;;;;;;;1.30;1.30;;;;;;;2.93;100.00;98999.06;5060594;28;20029;-74
2024/01/15 11:31:56;;;;;;;1.40;1.40;;;;;;;2.94;100.00;99000.78;5063918;28;20033;-69
2024/01/15 11:34:57;;;;;;;1.30;1.30;;;;;;;3.00;100.00;99002.44;5065778;28;20086;-74